Wendover, United Kingdom
Current Conditions -  °F | °C
As of 9:20 PM on Wednesday 26 Nov 2014 (Local Time) from EGGW Reporting Station
Moderate Fog Moderate Fog  
Wind Chill: 46°   Ceiling: 200
Heat Index: 46°   Visibility: 0.06mi
Dew Point: 46°   Wind: 2mph
Humidity: 100%   Direction: 80°E
Pressure: 29.77"   Gusts: NA
Location:  51.76°N, 0.74°W
Report Text: EGGW 262120Z 08002KT 0100 R08/0375 FG OVC002 08/08 Q1008
Loading
Personal Weather Stations






























Interactive Weather Map New forecast layout! Learn more

10-Day Weather Forecast

Advertisements
Track Severe Weather on mobile